sensor_id;sensor_type;location;lat;lon;timestamp;temperature;humidity
12504;DHT22;6316;48.118;-1.690;2023-07-09T00:02:18;23.10;94.50
12504;DHT22;6316;48.118;-1.690;2023-07-09T00:04:44;23.10;94.50
12504;DHT22;6316;48.118;-1.690;2023-07-09T00:09:50;23.00;94.50
12504;DHT22;6316;48.118;-1.690;2023-07-09T00:12:17;23.00;94.50
12504;DHT22;6316;48.118;-1.690;2023-07-09T00:14:43;23.00;94.60
12504;DHT22;6316;48.118;-1.690;2023-07-09T00:17:26;23.00;94.60
12504;DHT22;6316;48.118;-1.690;2023-07-09T00:19:53;23.00;94.60
12504;DHT22;6316;48.118;-1.690;2023-07-09T00:22:19;22.90;94.60
12504;DHT22;6316;48.118;-1.690;2023-07-09T00:24:46;22.90;94.60
12504;DHT22;6316;48.118;-1.690;2023-07-09T00:27:13;22.90;94.70
12504;DHT22;6316;48.118;-1.690;2023-07-09T00:29:41;22.80;94.70
12504;DHT22;6316;48.118;-1.690;2023-07-09T00:32:17;22.80;94.70
12504;DHT22;6316;48.118;-1.690;2023-07-09T00:34:46;22.80;94.70
12504;DHT22;6316;48.118;-1.690;2023-07-09T00:37:18;22.70;94.70
12504;DHT22;6316;48.118;-1.690;2023-07-09T00:39:48;22.70;94.80
12504;DHT22;6316;48.118;-1.690;2023-07-09T00:42:21;22.70;94.80
12504;DHT22;6316;48.118;-1.690;2023-07-09T00:44:51;22.70;94.80
12504;DHT22;6316;48.118;-1.690;2023-07-09T00:48:06;22.60;94.80
12504;DHT22;6316;48.118;-1.690;2023-07-09T00:50:23;22.60;94.80
12504;DHT22;6316;48.118;-1.690;2023-07-09T00:52:56;22.60;94.90
12504;DHT22;6316;48.118;-1.690;2023-07-09T00:55:26;22.50;94.90
12504;DHT22;6316;48.118;-1.690;2023-07-09T00:57:58;22.50;94.90
12504;DHT22;6316;48.118;-1.690;2023-07-09T01:00:46;22.50;94.90
12504;DHT22;6316;48.118;-1.690;2023-07-09T01:03:37;22.50;95.00
12504;DHT22;6316;48.118;-1.690;2023-07-09T01:06:06;22.40;95.00
12504;DHT22;6316;48.118;-1.690;2023-07-09T01:08:33;22.40;95.00
12504;DHT22;6316;48.118;-1.690;2023-07-09T01:11:00;22.40;95.00
12504;DHT22;6316;48.118;-1.690;2023-07-09T01:13:27;22.40;95.10
12504;DHT22;6316;48.118;-1.690;2023-07-09T01:15:53;22.40;95.10
12504;DHT22;6316;48.118;-1.690;2023-07-09T01:18:19;22.30;95.10
12504;DHT22;6316;48.118;-1.690;2023-07-09T01:20:47;22.30;95.10
12504;DHT22;6316;48.118;-1.690;2023-07-09T01:23:13;22.30;95.10
12504;DHT22;6316;48.118;-1.690;2023-07-09T01:25:44;22.30;95.20
12504;DHT22;6316;48.118;-1.690;2023-07-09T01:28:10;22.30;95.20
12504;DHT22;6316;48.118;-1.690;2023-07-09T01:30:39;22.30;95.20
12504;DHT22;6316;48.118;-1.690;2023-07-09T01:33:05;22.20;95.20
12504;DHT22;6316;48.118;-1.690;2023-07-09T01:35:34;22.30;95.20
12504;DHT22;6316;48.118;-1.690;2023-07-09T01:38:00;22.20;95.20
12504;DHT22;6316;48.118;-1.690;2023-07-09T01:40:27;22.20;95.30
12504;DHT22;6316;48.118;-1.690;2023-07-09T01:42:54;22.20;95.30
12504;DHT22;6316;48.118;-1.690;2023-07-09T01:45:21;22.20;95.30
12504;DHT22;6316;48.118;-1.690;2023-07-09T01:47:48;22.20;95.30
12504;DHT22;6316;48.118;-1.690;2023-07-09T01:50:14;22.10;95.30
12504;DHT22;6316;48.118;-1.690;2023-07-09T01:52:44;22.10;95.30
12504;DHT22;6316;48.118;-1.690;2023-07-09T01:55:11;22.10;95.30
12504;DHT22;6316;48.118;-1.690;2023-07-09T01:57:38;22.10;95.40
12504;DHT22;6316;48.118;-1.690;2023-07-09T02:00:11;22.10;95.40
12504;DHT22;6316;48.118;-1.690;2023-07-09T02:02:40;22.00;95.40
12504;DHT22;6316;48.118;-1.690;2023-07-09T02:05:08;22.00;95.40
12504;DHT22;6316;48.118;-1.690;2023-07-09T02:07:35;22.00;95.40
12504;DHT22;6316;48.118;-1.690;2023-07-09T02:10:00;21.90;95.50
12504;DHT22;6316;48.118;-1.690;2023-07-09T02:12:26;21.90;95.50
12504;DHT22;6316;48.118;-1.690;2023-07-09T02:14:52;21.80;95.50
12504;DHT22;6316;48.118;-1.690;2023-07-09T02:17:18;21.90;95.60
12504;DHT22;6316;48.118;-1.690;2023-07-09T02:19:44;21.80;95.60
12504;DHT22;6316;48.118;-1.690;2023-07-09T02:22:10;21.80;95.60
12504;DHT22;6316;48.118;-1.690;2023-07-09T02:24:37;21.80;95.60
12504;DHT22;6316;48.118;-1.690;2023-07-09T02:27:05;21.80;95.60
12504;DHT22;6316;48.118;-1.690;2023-07-09T02:29:31;21.90;95.60
12504;DHT22;6316;48.118;-1.690;2023-07-09T02:31:59;21.80;95.60
12504;DHT22;6316;48.118;-1.690;2023-07-09T02:34:27;21.80;96.00
12504;DHT22;6316;48.118;-1.690;2023-07-09T02:36:54;21.80;95.70
12504;DHT22;6316;48.118;-1.690;2023-07-09T02:39:20;21.80;95.70
12504;DHT22;6316;48.118;-1.690;2023-07-09T02:41:46;21.80;95.70
12504;DHT22;6316;48.118;-1.690;2023-07-09T02:44:11;21.70;95.70
12504;DHT22;6316;48.118;-1.690;2023-07-09T02:46:37;21.70;95.70
12504;DHT22;6316;48.118;-1.690;2023-07-09T02:49:04;21.70;95.80
12504;DHT22;6316;48.118;-1.690;2023-07-09T02:51:33;21.70;95.80
12504;DHT22;6316;48.118;-1.690;2023-07-09T02:54:00;21.70;95.80
12504;DHT22;6316;48.118;-1.690;2023-07-09T02:56:26;21.70;95.80
12504;DHT22;6316;48.118;-1.690;2023-07-09T02:58:52;21.70;95.80
12504;DHT22;6316;48.118;-1.690;2023-07-09T03:01:18;21.70;95.80
12504;DHT22;6316;48.118;-1.690;2023-07-09T03:03:53;21.70;95.80
12504;DHT22;6316;48.118;-1.690;2023-07-09T03:06:23;21.70;95.90
12504;DHT22;6316;48.118;-1.690;2023-07-09T03:08:50;21.60;95.80
12504;DHT22;6316;48.118;-1.690;2023-07-09T03:11:17;21.60;95.90
12504;DHT22;6316;48.118;-1.690;2023-07-09T03:13:43;21.60;95.90
12504;DHT22;6316;48.118;-1.690;2023-07-09T03:16:09;21.60;95.90
12504;DHT22;6316;48.118;-1.690;2023-07-09T03:18:35;21.60;95.90
12504;DHT22;6316;48.118;-1.690;2023-07-09T03:21:01;21.60;96.00
12504;DHT22;6316;48.118;-1.690;2023-07-09T03:23:27;21.50;96.00
12504;DHT22;6316;48.118;-1.690;2023-07-09T03:25:54;21.50;96.00
12504;DHT22;6316;48.118;-1.690;2023-07-09T03:28:19;21.50;96.00
12504;DHT22;6316;48.118;-1.690;2023-07-09T03:30:47;21.50;96.00
12504;DHT22;6316;48.118;-1.690;2023-07-09T03:33:14;21.50;96.10
12504;DHT22;6316;48.118;-1.690;2023-07-09T03:35:41;21.50;96.10
12504;DHT22;6316;48.118;-1.690;2023-07-09T03:38:08;21.50;96.10
12504;DHT22;6316;48.118;-1.690;2023-07-09T03:40:34;21.50;96.10
12504;DHT22;6316;48.118;-1.690;2023-07-09T03:43:00;21.50;96.10
12504;DHT22;6316;48.118;-1.690;2023-07-09T03:45:26;21.40;96.50
12504;DHT22;6316;48.118;-1.690;2023-07-09T03:47:52;21.40;96.20
12504;DHT22;6316;48.118;-1.690;2023-07-09T03:50:17;21.40;96.20
12504;DHT22;6316;48.118;-1.690;2023-07-09T03:52:43;21.40;96.20
12504;DHT22;6316;48.118;-1.690;2023-07-09T03:55:09;21.30;96.20
12504;DHT22;6316;48.118;-1.690;2023-07-09T03:57:35;21.30;96.20
12504;DHT22;6316;48.118;-1.690;2023-07-09T04:00:02;21.20;96.20
12504;DHT22;6316;48.118;-1.690;2023-07-09T04:02:28;21.10;96.20
12504;DHT22;6316;48.118;-1.690;2023-07-09T04:04:54;21.10;96.30
12504;DHT22;6316;48.118;-1.690;2023-07-09T04:07:19;21.00;96.30
12504;DHT22;6316;48.118;-1.690;2023-07-09T04:09:45;21.00;96.30
12504;DHT22;6316;48.118;-1.690;2023-07-09T04:12:11;21.00;96.40
12504;DHT22;6316;48.118;-1.690;2023-07-09T04:14:36;21.00;96.40
12504;DHT22;6316;48.118;-1.690;2023-07-09T04:17:02;21.00;96.40
12504;DHT22;6316;48.118;-1.690;2023-07-09T04:19:28;21.00;96.40
12504;DHT22;6316;48.118;-1.690;2023-07-09T04:21:54;21.00;96.50
12504;DHT22;6316;48.118;-1.690;2023-07-09T04:24:20;21.00;96.50
12504;DHT22;6316;48.118;-1.690;2023-07-09T04:26:46;21.00;96.50
12504;DHT22;6316;48.118;-1.690;2023-07-09T04:29:12;21.00;96.50
12504;DHT22;6316;48.118;-1.690;2023-07-09T04:31:39;21.00;96.50
12504;DHT22;6316;48.118;-1.690;2023-07-09T04:34:05;21.00;96.50
12504;DHT22;6316;48.118;-1.690;2023-07-09T04:36:31;21.00;96.50
12504;DHT22;6316;48.118;-1.690;2023-07-09T04:38:57;21.10;96.60
12504;DHT22;6316;48.118;-1.690;2023-07-09T04:41:23;21.10;96.60
12504;DHT22;6316;48.118;-1.690;2023-07-09T04:43:49;21.10;96.60
12504;DHT22;6316;48.118;-1.690;2023-07-09T04:46:14;21.10;96.60
12504;DHT22;6316;48.118;-1.690;2023-07-09T04:48:41;21.10;96.60
12504;DHT22;6316;48.118;-1.690;2023-07-09T04:51:06;21.10;96.60
12504;DHT22;6316;48.118;-1.690;2023-07-09T04:53:32;21.10;96.60
12504;DHT22;6316;48.118;-1.690;2023-07-09T04:55:58;21.10;96.70
12504;DHT22;6316;48.118;-1.690;2023-07-09T04:58:23;21.10;96.70
12504;DHT22;6316;48.118;-1.690;2023-07-09T05:00:49;21.10;96.70
12504;DHT22;6316;48.118;-1.690;2023-07-09T05:03:18;21.10;96.70
12504;DHT22;6316;48.118;-1.690;2023-07-09T05:05:47;21.20;96.70
12504;DHT22;6316;48.118;-1.690;2023-07-09T05:08:14;21.20;96.70
12504;DHT22;6316;48.118;-1.690;2023-07-09T05:10:48;21.20;96.70
12504;DHT22;6316;48.118;-1.690;2023-07-09T05:13:15;21.20;96.70
12504;DHT22;6316;48.118;-1.690;2023-07-09T05:15:45;21.20;96.70
12504;DHT22;6316;48.118;-1.690;2023-07-09T05:18:15;21.30;96.80
12504;DHT22;6316;48.118;-1.690;2023-07-09T05:20:41;21.30;96.80
12504;DHT22;6316;48.118;-1.690;2023-07-09T05:23:11;21.30;96.80
12504;DHT22;6316;48.118;-1.690;2023-07-09T05:25:36;21.30;96.80
12504;DHT22;6316;48.118;-1.690;2023-07-09T05:28:03;21.30;96.80
12504;DHT22;6316;48.118;-1.690;2023-07-09T05:30:29;21.30;96.80
12504;DHT22;6316;48.118;-1.690;2023-07-09T05:32:55;21.30;96.80
12504;DHT22;6316;48.118;-1.690;2023-07-09T05:35:23;21.30;96.80
12504;DHT22;6316;48.118;-1.690;2023-07-09T05:37:54;21.30;96.80
12504;DHT22;6316;48.118;-1.690;2023-07-09T05:40:20;21.30;96.90
12504;DHT22;6316;48.118;-1.690;2023-07-09T05:42:47;21.30;97.20
12504;DHT22;6316;48.118;-1.690;2023-07-09T05:45:13;21.40;96.90
12504;DHT22;6316;48.118;-1.690;2023-07-09T05:47:38;21.30;96.90
12504;DHT22;6316;48.118;-1.690;2023-07-09T05:50:05;21.30;96.90
12504;DHT22;6316;48.118;-1.690;2023-07-09T05:52:30;21.30;96.90
12504;DHT22;6316;48.118;-1.690;2023-07-09T05:54:56;21.30;97.00
12504;DHT22;6316;48.118;-1.690;2023-07-09T05:57:22;21.30;97.00
12504;DHT22;6316;48.118;-1.690;2023-07-09T05:59:48;21.30;97.00
12504;DHT22;6316;48.118;-1.690;2023-07-09T06:02:16;21.30;97.00
12504;DHT22;6316;48.118;-1.690;2023-07-09T06:04:42;21.30;97.10
12504;DHT22;6316;48.118;-1.690;2023-07-09T06:07:08;21.30;97.10
12504;DHT22;6316;48.118;-1.690;2023-07-09T06:09:35;21.30;97.10
12504;DHT22;6316;48.118;-1.690;2023-07-09T06:12:01;21.40;97.10
12504;DHT22;6316;48.118;-1.690;2023-07-09T06:14:27;21.40;97.10
12504;DHT22;6316;48.118;-1.690;2023-07-09T06:16:53;21.50;97.10
12504;DHT22;6316;48.118;-1.690;2023-07-09T06:19:19;21.50;97.10
12504;DHT22;6316;48.118;-1.690;2023-07-09T06:21:44;21.60;97.10
12504;DHT22;6316;48.118;-1.690;2023-07-09T06:24:10;21.60;97.10
12504;DHT22;6316;48.118;-1.690;2023-07-09T06:26:36;21.60;97.10
12504;DHT22;6316;48.118;-1.690;2023-07-09T06:29:02;21.60;97.10
12504;DHT22;6316;48.118;-1.690;2023-07-09T06:31:27;21.60;97.10
12504;DHT22;6316;48.118;-1.690;2023-07-09T06:33:53;21.60;97.10
12504;DHT22;6316;48.118;-1.690;2023-07-09T06:36:19;21.60;97.10
12504;DHT22;6316;48.118;-1.690;2023-07-09T06:38:45;21.60;97.20
12504;DHT22;6316;48.118;-1.690;2023-07-09T06:41:12;21.60;97.20
12504;DHT22;6316;48.118;-1.690;2023-07-09T06:43:38;21.70;97.20
12504;DHT22;6316;48.118;-1.690;2023-07-09T06:46:05;21.70;97.20
12504;DHT22;6316;48.118;-1.690;2023-07-09T06:48:31;21.70;97.20
12504;DHT22;6316;48.118;-1.690;2023-07-09T06:50:58;21.70;97.20
12504;DHT22;6316;48.118;-1.690;2023-07-09T06:53:25;21.70;97.20
12504;DHT22;6316;48.118;-1.690;2023-07-09T06:55:51;21.70;97.50
12504;DHT22;6316;48.118;-1.690;2023-07-09T06:58:29;21.80;97.20
12504;DHT22;6316;48.118;-1.690;2023-07-09T07:00:57;21.80;97.20
12504;DHT22;6316;48.118;-1.690;2023-07-09T07:03:23;21.80;97.20
12504;DHT22;6316;48.118;-1.690;2023-07-09T07:05:50;21.90;97.20
12504;DHT22;6316;48.118;-1.690;2023-07-09T07:08:18;21.90;97.20
12504;DHT22;6316;48.118;-1.690;2023-07-09T07:10:45;21.90;97.20
12504;DHT22;6316;48.118;-1.690;2023-07-09T07:13:12;21.90;97.20
12504;DHT22;6316;48.118;-1.690;2023-07-09T07:15:38;22.00;97.20
12504;DHT22;6316;48.118;-1.690;2023-07-09T07:18:04;22.00;97.20
12504;DHT22;6316;48.118;-1.690;2023-07-09T07:20:30;22.00;97.20
12504;DHT22;6316;48.118;-1.690;2023-07-09T07:22:56;22.10;97.20
12504;DHT22;6316;48.118;-1.690;2023-07-09T07:25:23;22.10;97.20
12504;DHT22;6316;48.118;-1.690;2023-07-09T07:27:49;22.20;97.20
12504;DHT22;6316;48.118;-1.690;2023-07-09T07:30:15;22.20;97.20
12504;DHT22;6316;48.118;-1.690;2023-07-09T07:32:45;22.30;97.20
12504;DHT22;6316;48.118;-1.690;2023-07-09T07:35:12;22.30;97.20
12504;DHT22;6316;48.118;-1.690;2023-07-09T07:37:41;22.30;97.20
12504;DHT22;6316;48.118;-1.690;2023-07-09T07:40:08;22.30;97.20
12504;DHT22;6316;48.118;-1.690;2023-07-09T07:42:34;22.30;97.10
12504;DHT22;6316;48.118;-1.690;2023-07-09T07:45:00;22.30;97.10
12504;DHT22;6316;48.118;-1.690;2023-07-09T07:47:27;22.40;97.20
12504;DHT22;6316;48.118;-1.690;2023-07-09T07:49:53;22.40;97.10
12504;DHT22;6316;48.118;-1.690;2023-07-09T07:52:19;22.40;97.10
12504;DHT22;6316;48.118;-1.690;2023-07-09T07:54:45;22.40;97.10
12504;DHT22;6316;48.118;-1.690;2023-07-09T07:57:11;22.50;97.10
12504;DHT22;6316;48.118;-1.690;2023-07-09T07:59:38;22.50;97.10
12504;DHT22;6316;48.118;-1.690;2023-07-09T08:02:05;22.60;97.10
12504;DHT22;6316;48.118;-1.690;2023-07-09T08:04:32;22.70;97.10
12504;DHT22;6316;48.118;-1.690;2023-07-09T08:06:58;22.80;97.00
12504;DHT22;6316;48.118;-1.690;2023-07-09T08:09:24;22.80;97.00
12504;DHT22;6316;48.118;-1.690;2023-07-09T08:11:50;23.00;97.00
12504;DHT22;6316;48.118;-1.690;2023-07-09T08:14:16;23.00;97.00
12504;DHT22;6316;48.118;-1.690;2023-07-09T08:16:41;23.00;96.90
12504;DHT22;6316;48.118;-1.690;2023-07-09T08:19:07;23.10;97.00
12504;DHT22;6316;48.118;-1.690;2023-07-09T08:21:33;23.10;96.90
12504;DHT22;6316;48.118;-1.690;2023-07-09T08:23:59;23.20;96.90
12504;DHT22;6316;48.118;-1.690;2023-07-09T08:26:24;23.20;96.90
12504;DHT22;6316;48.118;-1.690;2023-07-09T08:28:51;23.20;96.90
12504;DHT22;6316;48.118;-1.690;2023-07-09T08:31:17;23.20;96.90
12504;DHT22;6316;48.118;-1.690;2023-07-09T08:33:42;23.20;96.90
12504;DHT22;6316;48.118;-1.690;2023-07-09T08:36:08;23.20;97.00
12504;DHT22;6316;48.118;-1.690;2023-07-09T08:38:34;23.20;96.90
12504;DHT22;6316;48.118;-1.690;2023-07-09T08:43:45;23.30;96.90
12504;DHT22;6316;48.118;-1.690;2023-07-09T08:49:22;23.20;97.00
12504;DHT22;6316;48.118;-1.690;2023-07-09T08:51:49;23.10;97.00
12504;DHT22;6316;48.118;-1.690;2023-07-09T08:54:32;23.10;97.00
12504;DHT22;6316;48.118;-1.690;2023-07-09T08:57:17;23.10;97.00
12504;DHT22;6316;48.118;-1.690;2023-07-09T08:59:45;23.10;97.10
12504;DHT22;6316;48.118;-1.690;2023-07-09T09:02:33;23.20;97.10
12504;DHT22;6316;48.118;-1.690;2023-07-09T09:05:03;23.30;97.10
12504;DHT22;6316;48.118;-1.690;2023-07-09T09:10:02;23.30;97.00
12504;DHT22;6316;48.118;-1.690;2023-07-09T09:15:44;23.20;97.00
12504;DHT22;6316;48.118;-1.690;2023-07-09T09:18:24;23.20;97.10
12504;DHT22;6316;48.118;-1.690;2023-07-09T09:21:21;23.20;97.10
12504;DHT22;6316;48.118;-1.690;2023-07-09T09:23:54;23.20;97.20
12504;DHT22;6316;48.118;-1.690;2023-07-09T09:26:34;23.20;97.20
12504;DHT22;6316;48.118;-1.690;2023-07-09T09:29:00;23.30;97.20
12504;DHT22;6316;48.118;-1.690;2023-07-09T09:31:35;23.40;97.20
12504;DHT22;6316;48.118;-1.690;2023-07-09T09:34:00;23.40;97.20
12504;DHT22;6316;48.118;-1.690;2023-07-09T09:36:27;23.50;97.10
12504;DHT22;6316;48.118;-1.690;2023-07-09T09:38:53;23.50;97.10
12504;DHT22;6316;48.118;-1.690;2023-07-09T09:41:24;23.50;97.00
12504;DHT22;6316;48.118;-1.690;2023-07-09T09:43:52;23.50;97.00
12504;DHT22;6316;48.118;-1.690;2023-07-09T09:46:26;23.50;97.00
12504;DHT22;6316;48.118;-1.690;2023-07-09T09:48:56;23.50;97.10
12504;DHT22;6316;48.118;-1.690;2023-07-09T09:51:24;23.50;97.10
12504;DHT22;6316;48.118;-1.690;2023-07-09T09:53:52;23.50;97.10
12504;DHT22;6316;48.118;-1.690;2023-07-09T09:56:29;23.50;97.10
12504;DHT22;6316;48.118;-1.690;2023-07-09T09:58:57;23.60;97.20
12504;DHT22;6316;48.118;-1.690;2023-07-09T10:01:34;23.60;97.10
12504;DHT22;6316;48.118;-1.690;2023-07-09T10:04:01;23.70;97.10
12504;DHT22;6316;48.118;-1.690;2023-07-09T10:06:41;23.70;97.20
12504;DHT22;6316;48.118;-1.690;2023-07-09T10:20:01;23.70;97.20
12504;DHT22;6316;48.118;-1.690;2023-07-09T10:22:43;23.70;97.20
12504;DHT22;6316;48.118;-1.690;2023-07-09T10:25:35;23.70;97.20
12504;DHT22;6316;48.118;-1.690;2023-07-09T10:30:55;23.50;97.20
12504;DHT22;6316;48.118;-1.690;2023-07-09T10:39:13;23.30;97.30
12504;DHT22;6316;48.118;-1.690;2023-07-09T10:41:43;23.20;97.30
12504;DHT22;6316;48.118;-1.690;2023-07-09T10:46:47;23.20;97.40
12504;DHT22;6316;48.118;-1.690;2023-07-09T10:49:17;23.20;97.50
12504;DHT22;6316;48.118;-1.690;2023-07-09T10:51:49;23.20;97.50
12504;DHT22;6316;48.118;-1.690;2023-07-09T10:57:25;23.30;97.50
12504;DHT22;6316;48.118;-1.690;2023-07-09T10:59:51;23.30;97.50
12504;DHT22;6316;48.118;-1.690;2023-07-09T11:02:30;23.20;97.50
12504;DHT22;6316;48.118;-1.690;2023-07-09T11:07:31;23.40;97.50
12504;DHT22;6316;48.118;-1.690;2023-07-09T11:09:59;23.50;97.50
12504;DHT22;6316;48.118;-1.690;2023-07-09T11:12:34;23.50;97.80
12504;DHT22;6316;48.118;-1.690;2023-07-09T11:15:05;23.50;97.40
12504;DHT22;6316;48.118;-1.690;2023-07-09T11:17:37;23.60;97.40
12504;DHT22;6316;48.118;-1.690;2023-07-09T11:20:17;23.70;97.40
12504;DHT22;6316;48.118;-1.690;2023-07-09T11:22:54;23.60;97.30
12504;DHT22;6316;48.118;-1.690;2023-07-09T11:26:15;23.70;97.30
12504;DHT22;6316;48.118;-1.690;2023-07-09T11:28:15;23.80;97.30
12504;DHT22;6316;48.118;-1.690;2023-07-09T11:30:48;23.80;97.30
12504;DHT22;6316;48.118;-1.690;2023-07-09T11:33:27;23.90;97.30
12504;DHT22;6316;48.118;-1.690;2023-07-09T11:38:43;23.90;97.20
12504;DHT22;6316;48.118;-1.690;2023-07-09T11:44:05;23.80;97.20
12504;DHT22;6316;48.118;-1.690;2023-07-09T11:46:50;23.80;97.30
12504;DHT22;6316;48.118;-1.690;2023-07-09T11:49:19;23.80;97.30
12504;DHT22;6316;48.118;-1.690;2023-07-09T11:51:50;23.90;97.30
12504;DHT22;6316;48.118;-1.690;2023-07-09T11:54:18;24.00;97.30
12504;DHT22;6316;48.118;-1.690;2023-07-09T11:56:57;24.10;97.30
12504;DHT22;6316;48.118;-1.690;2023-07-09T11:59:23;24.20;97.20
12504;DHT22;6316;48.118;-1.690;2023-07-09T12:01:51;24.30;97.20
12504;DHT22;6316;48.118;-1.690;2023-07-09T12:04:21;24.40;97.10
12504;DHT22;6316;48.118;-1.690;2023-07-09T12:06:48;24.50;97.10
12504;DHT22;6316;48.118;-1.690;2023-07-09T12:09:18;24.50;97.00
12504;DHT22;6316;48.118;-1.690;2023-07-09T12:11:46;24.50;97.00
12504;DHT22;6316;48.118;-1.690;2023-07-09T12:14:20;24.50;97.00
12504;DHT22;6316;48.118;-1.690;2023-07-09T12:16:48;24.50;97.10
12504;DHT22;6316;48.118;-1.690;2023-07-09T12:19:28;24.40;97.10
12504;DHT22;6316;48.118;-1.690;2023-07-09T12:21:57;24.40;97.20
12504;DHT22;6316;48.118;-1.690;2023-07-09T12:24:28;24.40;97.20
12504;DHT22;6316;48.118;-1.690;2023-07-09T12:27:01;24.50;97.20
12504;DHT22;6316;48.118;-1.690;2023-07-09T12:29:34;24.70;97.10
12504;DHT22;6316;48.118;-1.690;2023-07-09T12:32:05;25.00;97.10
12504;DHT22;6316;48.118;-1.690;2023-07-09T12:34:35;25.20;96.90
12504;DHT22;6316;48.118;-1.690;2023-07-09T12:37:01;25.50;96.80
12504;DHT22;6316;48.118;-1.690;2023-07-09T12:39:29;25.70;96.70
12504;DHT22;6316;48.118;-1.690;2023-07-09T12:42:00;25.90;96.60
12504;DHT22;6316;48.118;-1.690;2023-07-09T12:44:27;26.10;96.50
12504;DHT22;6316;48.118;-1.690;2023-07-09T12:46:55;26.20;96.40
12504;DHT22;6316;48.118;-1.690;2023-07-09T12:49:26;26.40;96.30
12504;DHT22;6316;48.118;-1.690;2023-07-09T12:51:57;26.40;96.20
12504;DHT22;6316;48.118;-1.690;2023-07-09T12:54:24;26.40;96.20
12504;DHT22;6316;48.118;-1.690;2023-07-09T12:56:54;26.40;96.10
12504;DHT22;6316;48.118;-1.690;2023-07-09T13:01:55;26.60;96.10
12504;DHT22;6316;48.118;-1.690;2023-07-09T13:04:32;26.60;96.10
12504;DHT22;6316;48.118;-1.690;2023-07-09T13:06:58;26.70;96.00
12504;DHT22;6316;48.118;-1.690;2023-07-09T13:09:26;26.70;96.00
12504;DHT22;6316;48.118;-1.690;2023-07-09T13:11:52;26.70;95.90
12504;DHT22;6316;48.118;-1.690;2023-07-09T13:14:30;26.70;95.90
12504;DHT22;6316;48.118;-1.690;2023-07-09T13:17:07;26.80;95.80
12504;DHT22;6316;48.118;-1.690;2023-07-09T13:19:33;26.90;95.80
12504;DHT22;6316;48.118;-1.690;2023-07-09T13:21:59;27.00;95.70
12504;DHT22;6316;48.118;-1.690;2023-07-09T13:24:28;27.10;95.60
12504;DHT22;6316;48.118;-1.690;2023-07-09T13:26:55;27.10;95.60
12504;DHT22;6316;48.118;-1.690;2023-07-09T13:29:23;27.10;95.60
12504;DHT22;6316;48.118;-1.690;2023-07-09T13:31:49;27.10;95.50
12504;DHT22;6316;48.118;-1.690;2023-07-09T13:34:27;27.20;95.50
12504;DHT22;6316;48.118;-1.690;2023-07-09T13:36:54;27.20;95.40
12504;DHT22;6316;48.118;-1.690;2023-07-09T13:39:22;27.20;95.40
12504;DHT22;6316;48.118;-1.690;2023-07-09T13:41:49;27.20;95.30
12504;DHT22;6316;48.118;-1.690;2023-07-09T13:44:18;27.20;95.30
12504;DHT22;6316;48.118;-1.690;2023-07-09T13:46:44;27.10;95.20
12504;DHT22;6316;48.118;-1.690;2023-07-09T13:49:16;27.10;95.30
12504;DHT22;6316;48.118;-1.690;2023-07-09T13:51:44;27.10;95.30
12504;DHT22;6316;48.118;-1.690;2023-07-09T13:54:26;27.20;95.30
12504;DHT22;6316;48.118;-1.690;2023-07-09T13:56:52;27.20;95.20
12504;DHT22;6316;48.118;-1.690;2023-07-09T13:59:24;27.20;95.10
12504;DHT22;6316;48.118;-1.690;2023-07-09T14:01:52;27.20;95.10
12504;DHT22;6316;48.118;-1.690;2023-07-09T14:04:19;27.20;95.10
12504;DHT22;6316;48.118;-1.690;2023-07-09T14:06:45;27.20;95.10
12504;DHT22;6316;48.118;-1.690;2023-07-09T14:09:15;27.20;95.00
12504;DHT22;6316;48.118;-1.690;2023-07-09T14:11:51;27.20;95.00
12504;DHT22;6316;48.118;-1.690;2023-07-09T14:14:19;27.30;95.00
12504;DHT22;6316;48.118;-1.690;2023-07-09T14:16:46;27.30;94.90
12504;DHT22;6316;48.118;-1.690;2023-07-09T14:19:15;27.40;94.90
12504;DHT22;6316;48.118;-1.690;2023-07-09T14:21:42;27.40;94.80
12504;DHT22;6316;48.118;-1.690;2023-07-09T14:24:20;27.50;94.80
12504;DHT22;6316;48.118;-1.690;2023-07-09T14:26:50;27.50;94.70
12504;DHT22;6316;48.118;-1.690;2023-07-09T14:29:16;27.50;94.70
12504;DHT22;6316;48.118;-1.690;2023-07-09T14:31:44;27.50;94.70
12504;DHT22;6316;48.118;-1.690;2023-07-09T14:34:26;27.50;94.70
12504;DHT22;6316;48.118;-1.690;2023-07-09T14:36:54;27.50;94.60
12504;DHT22;6316;48.118;-1.690;2023-07-09T14:39:19;27.60;94.70
12504;DHT22;6316;48.118;-1.690;2023-07-09T14:41:46;27.60;94.60
12504;DHT22;6316;48.118;-1.690;2023-07-09T14:44:25;27.70;94.60
12504;DHT22;6316;48.118;-1.690;2023-07-09T14:46:52;27.80;94.60
12504;DHT22;6316;48.118;-1.690;2023-07-09T14:49:19;27.80;94.50
12504;DHT22;6316;48.118;-1.690;2023-07-09T14:51:46;27.80;94.40
12504;DHT22;6316;48.118;-1.690;2023-07-09T14:54:29;27.90;94.40
12504;DHT22;6316;48.118;-1.690;2023-07-09T14:56:56;28.00;94.30
12504;DHT22;6316;48.118;-1.690;2023-07-09T14:59:23;27.90;94.30
12504;DHT22;6316;48.118;-1.690;2023-07-09T15:01:50;27.90;94.30
12504;DHT22;6316;48.118;-1.690;2023-07-09T15:04:28;27.90;94.30
12504;DHT22;6316;48.118;-1.690;2023-07-09T15:06:55;27.90;94.30
12504;DHT22;6316;48.118;-1.690;2023-07-09T15:09:23;27.90;94.20
12504;DHT22;6316;48.118;-1.690;2023-07-09T15:11:51;27.90;94.10
12504;DHT22;6316;48.118;-1.690;2023-07-09T15:14:17;27.90;94.10
12504;DHT22;6316;48.118;-1.690;2023-07-09T15:16:46;27.90;94.10
12504;DHT22;6316;48.118;-1.690;2023-07-09T15:19:17;27.70;94.00
12504;DHT22;6316;48.118;-1.690;2023-07-09T15:21:44;27.70;94.10
12504;DHT22;6316;48.118;-1.690;2023-07-09T15:24:27;27.70;94.10
12504;DHT22;6316;48.118;-1.690;2023-07-09T15:26:57;27.70;94.00
12504;DHT22;6316;48.118;-1.690;2023-07-09T15:29:25;27.70;94.00
12504;DHT22;6316;48.118;-1.690;2023-07-09T15:31:51;27.80;93.90
12504;DHT22;6316;48.118;-1.690;2023-07-09T15:34:17;27.70;93.90
12504;DHT22;6316;48.118;-1.690;2023-07-09T15:36:48;27.60;93.80
12504;DHT22;6316;48.118;-1.690;2023-07-09T15:39:18;27.60;93.80
12504;DHT22;6316;48.118;-1.690;2023-07-09T15:41:45;27.50;93.80
12504;DHT22;6316;48.118;-1.690;2023-07-09T15:44:28;27.40;93.70
12504;DHT22;6316;48.118;-1.690;2023-07-09T15:46:55;27.40;93.80
12504;DHT22;6316;48.118;-1.690;2023-07-09T15:49:22;27.50;93.80
12504;DHT22;6316;48.118;-1.690;2023-07-09T15:51:48;27.60;93.70
12504;DHT22;6316;48.118;-1.690;2023-07-09T15:54:19;27.60;93.60
12504;DHT22;6316;48.118;-1.690;2023-07-09T15:56:46;27.60;93.50
12504;DHT22;6316;48.118;-1.690;2023-07-09T15:59:30;27.50;93.50
12504;DHT22;6316;48.118;-1.690;2023-07-09T16:01:58;27.50;93.50
12504;DHT22;6316;48.118;-1.690;2023-07-09T16:04:24;27.40;93.40
12504;DHT22;6316;48.118;-1.690;2023-07-09T16:06:50;27.30;93.40
12504;DHT22;6316;48.118;-1.690;2023-07-09T16:09:16;27.30;93.40
12504;DHT22;6316;48.118;-1.690;2023-07-09T16:11:47;27.20;93.30
12504;DHT22;6316;48.118;-1.690;2023-07-09T16:16:42;27.30;93.30
12504;DHT22;6316;48.118;-1.690;2023-07-09T16:19:07;27.30;93.30
12504;DHT22;6316;48.118;-1.690;2023-07-09T16:21:33;27.30;93.20
12504;DHT22;6316;48.118;-1.690;2023-07-09T16:24:03;27.30;93.10
12504;DHT22;6316;48.118;-1.690;2023-07-09T16:26:32;27.20;93.00
12504;DHT22;6316;48.118;-1.690;2023-07-09T16:28:57;27.10;93.00
12504;DHT22;6316;48.118;-1.690;2023-07-09T16:31:23;27.10;93.00
12504;DHT22;6316;48.118;-1.690;2023-07-09T16:33:49;27.00;93.00